Time;durP1;ratioP1;P1;durP2;ratioP2;P2;SDS_P1;SDS_P2;PMS_P1;PMS_P2;Temp;Humidity;BMP_temperature;BMP_pressure;BME280_temperature;BME280_humidity;BME280_pressure;Samples;Min_cycle;Max_cycle;Signal;HPM_P1;HPM_P2
2022/10/19 05:13:27;;;;;;;26.70;16.92;;;;;;;10.91;100.00;100894.31;6614051;26;155573;-87
2022/10/19 05:19:59;;;;;;;25.95;16.77;;;;;;;10.79;100.00;100874.50;6616947;27;33655;-87
2022/10/19 05:23:02;;;;;;;35.50;17.27;;;;;;;10.63;100.00;100887.56;6631350;26;33845;-88
2022/10/19 05:26:10;;;;;;;22.85;17.10;;;;;;;10.63;100.00;100898.16;6632694;26;35069;-89
2022/10/19 05:33:01;;;;;;;27.75;17.42;;;;;;;10.55;100.00;100901.13;6606091;26;20061;-88
2022/10/19 05:36:20;;;;;;;24.80;17.55;;;;;;;10.58;100.00;100900.12;6582154;27;33903;-88
2022/10/19 05:39:23;;;;;;;25.88;17.85;;;;;;;10.58;100.00;100916.06;6582087;26;34599;-90
2022/10/19 05:42:27;;;;;;;24.80;17.12;;;;;;;10.58;100.00;100922.25;6583419;27;33528;-89
2022/10/19 05:45:29;;;;;;;26.42;17.27;;;;;;;10.71;100.00;100922.56;6582656;27;33803;-88
2022/10/19 05:48:33;;;;;;;28.05;16.60;;;;;;;10.81;100.00;100927.53;6583812;26;34646;-89
2022/10/19 05:51:56;;;;;;;22.85;16.20;;;;;;;10.82;100.00;100931.91;6590566;26;36006;-89
2022/10/19 05:54:59;;;;;;;24.25;17.08;;;;;;;10.77;100.00;100922.31;6644712;26;33880;-86
2022/10/19 05:58:02;;;;;;;25.70;17.17;;;;;;;10.73;100.00;100923.41;6622013;26;32679;-88
2022/10/19 06:01:05;;;;;;;27.13;16.83;;;;;;;10.76;100.00;100930.38;6637816;26;34085;-88
2022/10/19 06:04:09;;;;;;;25.70;16.58;;;;;;;10.87;100.00;100935.22;6636052;26;33919;-87
2022/10/19 06:07:12;;;;;;;26.02;16.33;;;;;;;10.90;100.00;100930.66;6636191;26;34315;-88
2022/10/19 06:10:15;;;;;;;24.23;15.75;;;;;;;10.91;100.00;100928.84;6636563;26;33770;-87
2022/10/19 06:13:18;;;;;;;23.67;16.67;;;;;;;10.88;100.00;100928.97;6625574;26;33362;-86
2022/10/19 06:16:23;;;;;;;25.17;16.02;;;;;;;10.95;100.00;100942.88;6646192;26;34585;-87
2022/10/19 06:19:25;;;;;;;22.02;16.02;;;;;;;11.13;100.00;100950.06;6648421;26;33850;-87
2022/10/19 06:22:28;;;;;;;25.12;16.08;;;;;;;11.10;100.00;100946.63;6650624;26;34711;-87
2022/10/19 06:25:32;;;;;;;24.50;15.35;;;;;;;11.25;100.00;100948.66;6645122;26;34212;-85
2022/10/19 06:28:37;;;;;;;22.30;14.73;;;;;;;11.40;100.00;100949.75;6636890;26;34540;-87
2022/10/19 06:31:45;;;;;;;21.75;14.87;;;;;;;11.39;100.00;100952.47;6644790;26;34382;-87
2022/10/19 06:38:27;;;;;;;24.98;14.70;;;;;;;11.60;100.00;100963.94;6631520;26;32945;-86
2022/10/19 06:41:33;;;;;;;22.77;14.55;;;;;;;11.66;100.00;100966.34;6647911;26;33537;-87
2022/10/19 06:44:37;;;;;;;21.60;14.02;;;;;;;11.70;100.00;100965.28;6647124;26;32834;-86
2022/10/19 06:47:39;;;;;;;19.42;13.27;;;;;;;11.84;100.00;100971.75;6649442;26;34184;-87
2022/10/19 06:50:42;;;;;;;21.58;13.25;;;;;;;12.04;100.00;100970.00;6641812;26;34192;-86
2022/10/19 06:53:45;;;;;;;20.12;13.73;;;;;;;12.08;100.00;100977.75;6619908;26;32850;-87
2022/10/19 06:56:47;;;;;;;23.45;13.88;;;;;;;12.17;100.00;100979.13;6642323;26;34151;-87
2022/10/19 06:59:51;;;;;;;21.80;13.25;;;;;;;12.43;100.00;100984.16;6641865;26;34104;-86
2022/10/19 07:02:56;;;;;;;19.50;12.88;;;;;;;12.50;100.00;100991.78;6643722;26;33589;-86
2022/10/19 07:06:02;;;;;;;17.23;12.40;;;;;;;12.70;100.00;100995.28;6621891;26;32625;-87
2022/10/19 07:09:05;;;;;;;18.50;12.90;;;;;;;12.82;100.00;100987.62;6649677;26;34128;-88
2022/10/19 07:12:09;;;;;;;21.23;12.70;;;;;;;12.98;100.00;101007.22;6652446;26;35870;-87
2022/10/19 07:15:12;;;;;;;17.15;12.88;;;;;;;13.40;100.00;101013.13;6653269;26;34738;-86
2022/10/19 07:18:15;;;;;;;18.10;12.55;;;;;;;13.42;100.00;101015.72;6625421;26;32489;-91
2022/10/19 07:21:20;;;;;;;16.42;12.10;;;;;;;13.80;100.00;101023.53;6616937;26;33516;-91
2022/10/19 07:24:23;;;;;;;22.08;13.07;;;;;;;14.61;97.14;101019.16;6642107;26;34267;-91
2022/10/19 07:27:26;;;;;;;18.75;12.55;;;;;;;15.37;91.12;101038.00;6639506;26;34844;-88
2022/10/19 07:30:29;;;;;;;15.85;11.57;;;;;;;17.65;80.28;101038.75;6636687;26;34245;-89
2022/10/19 07:33:34;;;;;;;14.23;11.25;;;;;;;20.22;67.15;101029.81;6644080;26;34638;-87
2022/10/19 07:36:52;;;;;;;14.50;10.80;;;;;;;20.42;64.72;101038.09;6624658;26;33888;-87
2022/10/19 07:40:04;;;;;;;15.27;11.10;;;;;;;20.39;64.59;101028.44;6642371;26;35315;-87
2022/10/19 07:43:07;;;;;;;14.75;11.50;;;;;;;19.38;65.87;101036.28;6643219;26;34005;-85
2022/10/19 07:46:12;;;;;;;35.22;12.13;;;;;;;20.20;64.90;101032.63;6640745;26;34191;-85
2022/10/19 07:49:17;;;;;;;11.73;10.07;;;;;;;24.03;52.41;101028.06;6642833;26;33871;-88
2022/10/19 07:52:20;;;;;;;19.87;10.40;;;;;;;26.42;44.80;101032.16;6635957;26;34324;-86
2022/10/19 07:55:24;;;;;;;11.55;10.35;;;;;;;27.87;38.23;101024.56;6617932;26;32335;-86
2022/10/19 07:58:26;;;;;;;13.98;10.02;;;;;;;25.71;42.01;101013.31;6621159;26;32690;-85
2022/10/19 08:01:32;;;;;;;15.15;9.00;;;;;;;27.18;39.61;101020.37;6615984;26;34340;-86
2022/10/19 08:04:37;;;;;;;24.20;9.30;;;;;;;29.75;35.92;101018.19;6643068;26;34895;-86
2022/10/19 08:07:59;;;;;;;12.37;8.55;;;;;;;28.31;36.10;101017.75;6637591;26;34125;-87
2022/10/19 08:11:07;;;;;;;15.68;9.00;;;;;;;29.26;34.05;101008.59;6638928;26;35074;-86
2022/10/19 08:14:09;;;;;;;11.32;8.95;;;;;;;25.39;45.48;101007.44;6642062;26;35991;-87
2022/10/19 08:17:15;;;;;;;12.27;9.35;;;;;;;24.09;46.33;101008.53;6639569;26;34882;-87
2022/10/19 08:20:18;;;;;;;11.88;8.88;;;;;;;23.26;48.42;101017.28;6626648;26;32609;-88
2022/10/19 08:23:26;;;;;;;122.95;13.57;;;;;;;23.03;49.95;101014.84;6634216;26;33711;-87
2022/10/19 08:26:29;;;;;;;27.83;9.20;;;;;;;25.02;46.53;101013.94;6614606;26;34069;-88
2022/10/19 08:29:32;;;;;;;13.85;8.98;;;;;;;27.01;40.76;101017.66;6615882;26;33147;-86
2022/10/19 08:32:36;;;;;;;12.45;8.00;;;;;;;27.61;39.09;101012.03;6632866;26;34512;-86
2022/10/19 08:35:39;;;;;;;17.83;8.05;;;;;;;28.35;37.04;101012.78;6632619;26;34107;-86
2022/10/19 08:38:43;;;;;;;14.40;7.80;;;;;;;26.11;41.58;101021.81;6634464;26;34559;-86
2022/10/19 08:41:59;;;;;;;13.15;8.02;;;;;;;24.75;44.18;101010.28;6615448;26;33788;-86
2022/10/19 08:45:17;;;;;;;12.98;8.38;;;;;;;24.29;46.09;101018.44;6632709;26;34161;-85
2022/10/19 08:48:35;;;;;;;10.07;8.38;;;;;;;23.42;47.84;101030.25;6633741;26;35221;-85
2022/10/19 08:51:41;;;;;;;12.93;7.50;;;;;;;21.53;52.91;101022.59;6637471;26;34011;-86
2022/10/19 08:54:55;;;;;;;12.85;7.95;;;;;;;21.15;54.63;101026.75;6640796;26;33968;-89
2022/10/19 08:58:26;;;;;;;10.27;7.60;;;;;;;20.64;58.22;101017.47;6649894;26;35159;-88
2022/10/19 09:01:46;;;;;;;13.43;6.87;;;;;;;20.26;60.47;101015.09;6614054;26;33774;-87
2022/10/19 09:04:57;;;;;;;15.93;8.25;;;;;;;20.41;59.83;101012.16;6651741;26;35026;-88
2022/10/19 09:08:00;;;;;;;;;;;;;;;20.53;58.03;101007.56;6632428;26;34272;-87
2022/10/19 09:11:02;;;;;;;6.85;4.95;;;;;;;19.78;59.68;101011.62;6655000;26;35258;-88
2022/10/19 09:17:41;;;;;;;5.70;4.90;;;;;;;20.24;58.85;101003.59;6648893;26;20056;-86
2022/10/19 09:24:36;;;;;;;9.57;5.07;;;;;;;20.54;58.48;101003.88;6578941;27;20409;-85
2022/10/19 09:27:42;;;;;;;7.03;4.60;;;;;;;21.10;55.73;101015.50;6577795;27;33630;-85
2022/10/19 09:30:50;;;;;;;5.30;4.72;;;;;;;21.17;53.73;101013.13;6589708;27;33968;-88
2022/10/19 09:41:20;;;;;;;6.35;4.43;;;;;;;22.47;49.33;101018.06;6613944;26;20075;-87
2022/10/19 09:55:46;;;;;;;12.93;4.90;;;;;;;21.91;50.15;101009.50;6650346;26;20071;-87
2022/10/19 09:58:51;;;;;;;6.57;4.60;;;;;;;21.65;51.46;101012.59;6655194;26;35060;-87
2022/10/19 10:02:02;;;;;;;6.80;4.78;;;;;;;21.44;51.41;101007.22;6645421;26;35072;-87
2022/10/19 10:05:14;;;;;;;5.25;4.60;;;;;;;21.65;52.11;101000.94;6618149;26;32165;-88
2022/10/19 10:08:20;;;;;;;5.05;4.55;;;;;;;21.64;52.61;100996.53;6637509;26;34285;-87
2022/10/19 10:11:34;;;;;;;5.85;4.60;;;;;;;21.76;51.77;100997.31;6637727;26;33883;-86
2022/10/19 10:14:40;;;;;;;12.13;4.60;;;;;;;23.07;49.87;100986.53;6616126;26;33574;-90
2022/10/19 10:17:46;;;;;;;3.87;3.45;;;;;;;23.96;46.99;100987.19;6640552;26;35369;-91
2022/10/19 10:21:18;;;;;;;6.90;3.95;;;;;;;23.96;44.89;100978.19;6641606;26;33869;-88
2022/10/19 10:24:30;;;;;;;8.43;4.05;;;;;;;23.37;45.33;100976.56;6625693;26;33711;-87
2022/10/19 10:27:37;;;;;;;4.90;4.40;;;;;;;23.06;47.15;100979.41;6648327;26;36714;-87
2022/10/19 10:30:45;;;;;;;13.15;4.00;;;;;;;23.61;46.11;100971.63;6645247;26;34249;-88
2022/10/19 10:33:54;;;;;;;3.28;2.90;;;;;;;22.86;48.69;100968.63;6629166;26;33802;-87
2022/10/19 10:36:57;;;;;;;2.20;2.10;;;;;;;22.69;46.32;100958.50;6646597;26;34444;-87
2022/10/19 10:40:00;;;;;;;4.43;2.67;;;;;;;23.98;39.62;100959.09;6643164;26;33999;-87
2022/10/19 10:43:16;;;;;;;2.30;2.10;;;;;;;25.47;36.33;100962.34;6642708;26;34271;-87
2022/10/19 10:46:23;;;;;;;3.37;1.85;;;;;;;25.83;35.02;100965.81;6652669;26;34623;-87
2022/10/19 10:49:32;;;;;;;1.80;1.70;;;;;;;24.60;35.77;100961.16;6652678;26;35289;-88
2022/10/19 10:56:32;;;;;;;4.97;2.37;;;;;;;22.85;40.37;100956.09;6643453;26;20066;-88
2022/10/19 10:59:48;;;;;;;3.97;2.47;;;;;;;22.81;42.45;100940.28;6637255;26;35390;-91
2022/10/19 11:02:59;;;;;;;3.78;2.58;;;;;;;26.45;36.16;100931.19;6636669;26;34404;-86
2022/10/19 11:06:02;;;;;;;4.47;2.60;;;;;;;27.34;33.85;100931.53;6642374;26;34271;-88
2022/10/19 11:09:41;;;;;;;7.18;2.65;;;;;;;25.52;35.75;100932.84;6633477;26;34168;-88
2022/10/19 11:12:55;;;;;;;2.17;2.00;;;;;;;22.82;40.10;100923.91;6581398;26;34355;-88
2022/10/19 11:16:37;;;;;;;2.83;2.00;;;;;;;21.62;41.55;100923.78;6615505;26;32277;-87
2022/10/19 11:19:43;;;;;;;3.60;1.80;;;;;;;22.20;40.52;100922.28;6639661;26;34082;-87
2022/10/19 11:27:13;;;;;;;9.50;2.08;;;;;;;21.43;40.30;100918.28;6636362;26;33891;-86
2022/10/19 11:30:19;;;;;;;8.90;2.20;;;;;;;21.09;40.30;100906.75;6617013;26;32519;-88
2022/10/19 11:34:02;;;;;;;3.25;2.20;;;;;;;20.43;42.19;100911.31;6626100;26;32951;-88
2022/10/19 11:37:30;;;;;;;3.72;2.05;;;;;;;20.71;41.84;100914.41;6637118;26;34749;-88
2022/10/19 11:41:05;;;;;;;1.70;1.60;;;;;;;20.33;42.35;100913.09;6641530;26;34299;-87
2022/10/19 11:44:39;;;;;;;1.98;1.87;;;;;;;20.36;43.12;100907.44;6645458;26;35420;-90
2022/10/19 11:48:16;;;;;;;2.85;2.03;;;;;;;20.22;41.98;100910.41;6649488;26;34095;-87
2022/10/19 11:51:40;;;;;;;3.40;2.20;;;;;;;20.01;44.96;100911.22;6631954;26;32623;-88
2022/10/19 11:55:07;;;;;;;1.83;1.65;;;;;;;19.69;44.84;100898.47;6644374;26;33960;-88
2022/10/19 11:58:50;;;;;;;2.10;1.90;;;;;;;19.60;44.82;100900.06;6617980;26;33120;-88
2022/10/19 12:01:53;;;;;;;3.33;1.60;;;;;;;19.75;45.27;100889.91;6617991;26;32355;-88
2022/10/19 12:05:00;;;;;;;2.10;1.73;;;;;;;19.63;44.97;100906.06;6636470;26;33912;-88
2022/10/19 12:08:13;;;;;;;2.15;2.00;;;;;;;19.46;44.79;100899.31;6636364;26;34102;-87
2022/10/19 12:11:37;;;;;;;4.85;1.95;;;;;;;19.21;46.06;100890.50;6636440;26;34851;-92
2022/10/19 12:14:44;;;;;;;2.15;2.00;;;;;;;19.35;46.80;100881.34;6637053;26;34012;-88
2022/10/19 12:17:50;;;;;;;3.10;1.60;;;;;;;19.34;47.07;100874.25;6617953;26;32553;-88
2022/10/19 12:20:58;;;;;;;3.20;1.52;;;;;;;19.25;45.58;100875.84;6639840;26;33659;-88
2022/10/19 12:24:05;;;;;;;3.67;1.50;;;;;;;18.93;44.64;100872.94;6638935;26;33901;-88
2022/10/19 12:27:13;;;;;;;2.05;1.95;;;;;;;19.30;42.99;100875.47;6616236;26;32825;-87
2022/10/19 12:30:22;;;;;;;1.73;1.60;;;;;;;19.22;43.17;100865.31;6635702;26;34075;-89
2022/10/19 12:33:52;;;;;;;2.22;1.73;;;;;;;18.75;44.96;100872.56;6617287;26;32521;-88
2022/10/19 12:37:19;;;;;;;6.47;1.63;;;;;;;18.76;44.54;100867.03;6645072;26;33743;-88
2022/10/19 12:40:35;;;;;;;5.53;2.00;;;;;;;19.01;44.67;100873.19;6633434;26;34190;-87
2022/10/19 12:43:50;;;;;;;9.10;2.17;;;;;;;19.04;44.89;100864.94;6652830;26;34862;-88
2022/10/19 12:50:59;;;;;;;6.12;2.28;;;;;;;18.92;46.17;100864.03;6639487;26;21656;-88
2022/10/19 12:54:09;;;;;;;7.53;2.87;;;;;;;18.75;45.04;100846.50;6604753;26;33553;-87
2022/10/19 12:57:29;;;;;;;4.40;2.10;;;;;;;18.79;45.42;100850.69;6615846;26;33430;-88
2022/10/19 13:00:37;;;;;;;12.52;2.47;;;;;;;18.74;44.74;100855.56;6616723;26;33442;-89
2022/10/19 13:03:43;;;;;;;6.78;2.20;;;;;;;18.85;44.94;100846.66;6620999;26;33030;-88
2022/10/19 13:06:48;;;;;;;4.80;2.30;;;;;;;19.23;44.11;100850.06;6639401;26;34150;-89
2022/10/19 13:10:00;;;;;;;8.10;2.80;;;;;;;18.97;43.42;100848.38;6640456;26;33917;-88
2022/10/19 13:13:03;;;;;;;4.35;2.30;;;;;;;18.80;43.63;100843.50;6640005;26;34187;-87
2022/10/19 13:16:28;;;;;;;5.75;2.53;;;;;;;18.79;44.75;100844.44;6644118;26;34055;-89
2022/10/19 13:19:33;;;;;;;2.42;2.15;;;;;;;18.65;44.55;100850.91;6624089;26;32987;-87
2022/10/19 13:22:36;;;;;;;4.40;2.40;;;;;;;18.53;44.41;100844.63;6632005;26;32728;-87
2022/10/19 13:25:40;;;;;;;2.67;2.20;;;;;;;18.53;44.35;100845.50;6631035;26;32644;-89
2022/10/19 13:29:10;;;;;;;4.55;2.33;;;;;;;18.36;44.35;100848.59;6639533;26;34113;-89
2022/10/19 13:32:35;;;;;;;4.43;2.30;;;;;;;18.62;43.34;100845.75;6625084;26;32383;-89
2022/10/19 13:43:02;;;;;;;2.72;2.20;;;;;;;18.10;42.81;100851.41;6644618;26;20043;-89
2022/10/19 13:54:02;;;;;;;4.80;2.92;;;;;;;17.90;44.53;100859.03;6647477;26;20039;-88
2022/10/19 13:57:14;;;;;;;3.45;3.00;;;;;;;17.67;45.16;100863.41;6590933;26;34422;-88
2022/10/19 14:00:29;;;;;;;6.78;2.72;;;;;;;17.66;44.27;100851.84;6636611;26;34874;-89
2022/10/19 14:03:53;;;;;;;7.18;3.55;;;;;;;17.51;45.34;100846.59;6636663;26;33848;-88
2022/10/19 14:07:06;;;;;;;3.65;3.33;;;;;;;17.44;46.35;100850.69;6631678;26;34321;-88
2022/10/19 14:10:18;;;;;;;5.90;3.70;;;;;;;17.55;46.51;100843.72;6617259;26;32688;-89
2022/10/19 14:13:21;;;;;;;4.85;3.30;;;;;;;17.22;48.22;100854.03;6608125;26;32343;-88
2022/10/19 14:16:23;;;;;;;5.57;3.70;;;;;;;17.32;48.45;100860.47;6612049;27;34586;-89
2022/10/19 14:19:40;;;;;;;6.70;3.55;;;;;;;17.17;48.70;100861.53;6610327;27;34182;-89
2022/10/19 14:26:41;;;;;;;7.30;3.92;;;;;;;17.14;49.59;100853.72;6644750;26;20310;-89
2022/10/19 14:29:48;;;;;;;5.68;4.10;;;;;;;17.17;50.80;100854.37;6617271;26;32486;-88
2022/10/19 14:32:52;;;;;;;8.02;3.97;;;;;;;16.91;51.37;100854.34;6653436;26;33651;-88
2022/10/19 14:36:00;;;;;;;8.10;4.50;;;;;;;16.77;51.33;100866.00;6633915;26;32510;-88
2022/10/19 14:39:03;;;;;;;12.73;4.20;;;;;;;16.79;51.02;100855.19;6649162;26;33981;-87
2022/10/19 14:42:09;;;;;;;4.22;3.50;;;;;;;16.65;51.61;100856.94;6618154;26;32832;-87
2022/10/19 14:45:21;;;;;;;5.65;3.53;;;;;;;16.81;51.02;100856.75;6617777;26;33874;-88
2022/10/19 14:48:24;;;;;;;8.15;3.50;;;;;;;16.55;51.58;100845.16;6618072;26;32562;-88
2022/10/19 14:52:06;;;;;;;3.65;3.30;;;;;;;16.47;49.27;100847.47;6633396;26;34553;-88
2022/10/19 14:55:15;;;;;;;4.40;3.30;;;;;;;16.35;48.94;100854.53;6619428;26;32456;-87
2022/10/19 14:58:22;;;;;;;5.50;3.00;;;;;;;16.26;48.77;100845.28;6638233;26;34658;-87
2022/10/19 15:01:27;;;;;;;6.57;3.53;;;;;;;16.19;48.17;100844.81;6619583;26;33110;-86
2022/10/19 15:04:35;;;;;;;7.72;3.37;;;;;;;16.04;48.40;100838.66;6620500;26;32512;-87
2022/10/19 15:08:00;;;;;;;7.05;3.30;;;;;;;15.94;48.47;100845.59;6643699;26;35299;-87
2022/10/19 15:11:40;;;;;;;4.12;3.20;;;;;;;15.73;49.43;100854.00;6637247;26;34161;-87
2022/10/19 15:14:44;;;;;;;4.68;3.30;;;;;;;15.81;48.97;100857.06;6620851;26;34095;-88
2022/10/19 15:17:51;;;;;;;3.47;3.10;;;;;;;15.63;49.59;100859.09;6640872;26;33995;-87
2022/10/19 15:21:16;;;;;;;4.22;3.30;;;;;;;15.53;50.50;100850.78;6645153;26;34875;-87
2022/10/19 15:24:26;;;;;;;5.78;3.30;;;;;;;15.48;51.61;100842.19;6646900;26;35366;-87
2022/10/19 15:27:46;;;;;;;4.75;3.28;;;;;;;15.28;51.89;100854.16;6620982;26;32505;-88
